Time;durP1;ratioP1;P1;durP2;ratioP2;P2;SDS_P1;SDS_P2;PMS_P1;PMS_P2;Temp;Humidity;BMP_temperature;BMP_pressure;BME280_temperature;BME280_humidity;BME280_pressure;Samples;Min_cycle;Max_cycle;Signal;HPM_P1;HPM_P2
2022/12/20 00:00:55;;;;;;;6.78;2.65;;;;;;;;;;5031977;28;20046;-78
2022/12/20 00:03:23;;;;;;;6.35;2.33;;;;;;;;;;5028469;28;20934;-78
2022/12/20 00:05:50;;;;;;;6.18;2.80;;;;;;;;;;5033052;28;20050;-78
2022/12/20 00:08:17;;;;;;;5.35;2.70;;;;;;;;;;5031670;28;20056;-79
2022/12/20 00:10:45;;;;;;;4.60;2.28;;;;;;;;;;5035503;28;20141;-78
2022/12/20 00:13:13;;;;;;;5.80;2.42;;;;;;;;;;5033615;28;20052;-78
2022/12/20 00:15:40;;;;;;;3.40;2.22;;;;;;;;;;5031584;28;20685;-78
2022/12/20 00:18:08;;;;;;;8.07;2.70;;;;;;;;;;5030812;28;20046;-78
2022/12/20 00:20:35;;;;;;;4.75;2.50;;;;;;;;;;5030616;28;20229;-78
2022/12/20 00:23:03;;;;;;;5.40;2.63;;;;;;;;;;5032094;28;20054;-78
2022/12/20 00:25:30;;;;;;;3.97;2.50;;;;;;;;;;5029494;28;20050;-78
2022/12/20 00:27:57;;;;;;;7.15;2.45;;;;;;;;;;5031320;28;20132;-78
2022/12/20 00:30:25;;;;;;;5.38;2.70;;;;;;;;;;5031749;28;20046;-78
2022/12/20 00:32:52;;;;;;;6.07;2.55;;;;;;;;;;5031283;28;20092;-78
2022/12/20 00:35:20;;;;;;;6.03;2.65;;;;;;;;;;5032163;28;20054;-78
2022/12/20 00:37:47;;;;;;;5.00;2.40;;;;;;;;;;5031112;28;20050;-78
2022/12/20 00:40:15;;;;;;;3.53;2.05;;;;;;;;;;5030661;28;20046;-78
2022/12/20 00:42:42;;;;;;;4.80;2.08;;;;;;;;;;5030508;28;20093;-78
2022/12/20 00:45:10;;;;;;;3.60;1.90;;;;;;;;;;5031091;28;20534;-78
2022/12/20 00:47:38;;;;;;;6.05;2.55;;;;;;;;;;5044350;28;20097;-78
2022/12/20 00:50:06;;;;;;;5.13;3.00;;;;;;;;;;5030665;28;20131;-78
2022/12/20 00:52:33;;;;;;;3.65;2.22;;;;;;;;;;5027021;28;20041;-78
2022/12/20 00:55:00;;;;;;;6.07;2.50;;;;;;;;;;5023440;28;20424;-78
2022/12/20 00:57:27;;;;;;;7.20;2.42;;;;;;;;;;5030380;28;20046;-77
2022/12/20 00:59:54;;;;;;;4.05;2.10;;;;;;;;;;5025869;28;20053;-78
2022/12/20 01:02:21;;;;;;;4.25;2.33;;;;;;;;;;5032138;28;20136;-78
2022/12/20 01:04:49;;;;;;;4.18;2.20;;;;;;;;;;5032411;28;20054;-78
2022/12/20 01:07:18;;;;;;;4.00;2.05;;;;;;;;;;5030932;28;20058;-78
2022/12/20 01:09:45;;;;;;;6.05;2.38;;;;;;;;;;5034584;28;20069;-78
2022/12/20 01:12:13;;;;;;;4.18;2.15;;;;;;;;;;5031719;28;20050;-78
2022/12/20 01:14:41;;;;;;;6.15;2.42;;;;;;;;;;5031471;28;20046;-79
2022/12/20 01:17:08;;;;;;;6.82;2.33;;;;;;;;;;5030647;28;20113;-79
2022/12/20 01:19:35;;;;;;;5.38;2.20;;;;;;;;;;5033402;28;20105;-78
2022/12/20 01:22:02;;;;;;;6.75;2.55;;;;;;;;;;5029363;28;20094;-78
2022/12/20 01:24:32;;;;;;;4.63;2.30;;;;;;;;;;5033374;28;20097;-78
2022/12/20 01:27:01;;;;;;;7.35;2.60;;;;;;;;;;5027669;28;20066;-79
2022/12/20 01:29:29;;;;;;;6.00;2.72;;;;;;;;;;5031156;28;20864;-78
2022/12/20 01:31:56;;;;;;;4.93;2.67;;;;;;;;;;5031511;28;20047;-78
2022/12/20 01:34:23;;;;;;;6.30;2.78;;;;;;;;;;5030167;28;20127;-78
2022/12/20 01:36:51;;;;;;;5.80;2.80;;;;;;;;;;5029163;28;20045;-78
2022/12/20 01:39:18;;;;;;;5.20;2.60;;;;;;;;;;5034221;28;20109;-78
2022/12/20 01:41:46;;;;;;;5.95;3.25;;;;;;;;;;5021883;28;20147;-79
2022/12/20 01:44:16;;;;;;;5.90;2.80;;;;;;;;;;5044651;28;20053;-78
2022/12/20 01:46:45;;;;;;;7.10;3.00;;;;;;;;;;5030785;28;20084;-78
2022/12/20 01:49:18;;;;;;;5.95;3.22;;;;;;;;;;5029755;28;20072;-78
2022/12/20 01:51:45;;;;;;;;;;;;;;;;;;5028487;28;20088;-78
2022/12/20 01:54:15;;;;;;;4.72;2.75;;;;;;;;;;5034168;28;45000;-78
2022/12/20 01:56:44;;;;;;;6.60;2.88;;;;;;;;;;5029712;28;20106;-79
2022/12/20 01:59:12;;;;;;;6.10;2.95;;;;;;;;;;5028584;28;20057;-78
2022/12/20 02:01:41;;;;;;;5.28;2.90;;;;;;;;;;5046432;28;20990;-78
2022/12/20 02:04:09;;;;;;;6.93;2.75;;;;;;;;;;5036386;28;20038;-79
2022/12/20 02:06:37;;;;;;;7.78;3.00;;;;;;;;;;5043856;28;20145;-78
2022/12/20 02:09:05;;;;;;;5.50;3.00;;;;;;;;;;5030089;28;20085;-78
2022/12/20 02:11:51;;;;;;;6.22;3.75;;;;;;;;;;5033006;28;20050;-79
2022/12/20 02:14:34;;;;;;;7.63;3.42;;;;;;;;;;5030288;28;20078;-79
2022/12/20 02:17:15;;;;;;;10.55;3.20;;;;;;;;;;5033084;28;20076;-78
2022/12/20 02:19:54;;;;;;;6.75;3.60;;;;;;;;;;5030709;28;20076;-78
2022/12/20 02:22:39;;;;;;;7.10;3.00;;;;;;;;;;5032311;28;20046;-78
2022/12/20 02:25:06;;;;;;;7.60;3.20;;;;;;;;;;5029172;28;20455;-78
2022/12/20 02:28:12;;;;;;;6.18;3.30;;;;;;;;;;5029836;28;20050;-78
2022/12/20 02:30:41;;;;;;;7.38;3.92;;;;;;;;;;4992126;28;20058;-78
2022/12/20 02:33:10;;;;;;;6.70;3.40;;;;;;;;;;4992722;28;20054;-78
2022/12/20 02:35:41;;;;;;;7.80;3.50;;;;;;;;;;4994731;28;20074;-78
2022/12/20 02:38:29;;;;;;;7.43;3.50;;;;;;;;;;4993655;28;21128;-79
2022/12/20 02:41:02;;;;;;;7.68;3.53;;;;;;;;;;4995372;28;20106;-78
2022/12/20 02:46:19;;;;;;;9.00;3.00;;;;;;;;;;4993614;28;20035;-78
2022/12/20 02:48:47;;;;;;;5.40;3.47;;;;;;;;;;4993264;28;20051;-78
2022/12/20 02:51:15;;;;;;;7.63;3.88;;;;;;;;;;4997875;28;20214;-78
2022/12/20 02:53:43;;;;;;;5.10;3.00;;;;;;;;;;4993191;28;20098;-78
2022/12/20 02:56:13;;;;;;;5.82;3.55;;;;;;;;;;4993752;28;20670;-78
2022/12/20 02:59:02;;;;;;;8.93;3.67;;;;;;;;;;4992964;28;20050;-78
2022/12/20 03:01:34;;;;;;;7.63;3.33;;;;;;;;;;5010356;28;20050;-78
2022/12/20 03:04:02;;;;;;;7.20;3.30;;;;;;;;;;5027431;28;20145;-78
2022/12/20 03:06:32;;;;;;;5.85;3.20;;;;;;;;;;5029465;28;20057;-78
2022/12/20 03:09:02;;;;;;;9.70;3.75;;;;;;;;;;5039874;28;20061;-78
2022/12/20 03:11:29;;;;;;;7.57;3.72;;;;;;;;;;5030567;28;20054;-78
2022/12/20 03:13:57;;;;;;;6.43;3.45;;;;;;;;;;5031931;28;20054;-78
2022/12/20 03:16:24;;;;;;;7.75;3.00;;;;;;;;;;5033145;28;20058;-78
2022/12/20 03:18:52;;;;;;;5.32;3.08;;;;;;;;;;5031577;28;20045;-78
2022/12/20 03:21:19;;;;;;;6.75;3.60;;;;;;;;;;5032460;28;20107;-78
2022/12/20 03:23:47;;;;;;;5.93;3.03;;;;;;;;;;5030477;28;20082;-78
2022/12/20 03:26:14;;;;;;;10.27;3.35;;;;;;;;;;5032074;28;20044;-78
2022/12/20 03:28:41;;;;;;;8.73;3.30;;;;;;;;;;5030094;28;20046;-78
2022/12/20 03:31:09;;;;;;;6.13;3.15;;;;;;;;;;5026321;28;20145;-78
2022/12/20 03:33:36;;;;;;;5.28;3.20;;;;;;;;;;5045651;28;20100;-78
2022/12/20 03:36:06;;;;;;;7.22;3.28;;;;;;;;;;5030329;28;20956;-79
2022/12/20 03:38:33;;;;;;;7.25;3.10;;;;;;;;;;5027365;28;20066;-78
2022/12/20 03:41:00;;;;;;;7.70;3.30;;;;;;;;;;5029815;28;20050;-78
2022/12/20 03:43:28;;;;;;;5.65;2.83;;;;;;;;;;5024541;28;20053;-78
2022/12/20 03:45:55;;;;;;;8.65;3.28;;;;;;;;;;5027517;28;20054;-78
2022/12/20 03:48:22;;;;;;;7.72;3.40;;;;;;;;;;5028705;28;20053;-78
2022/12/20 03:50:50;;;;;;;5.35;3.20;;;;;;;;;;5026536;28;20491;-77
2022/12/20 03:53:17;;;;;;;7.95;3.42;;;;;;;;;;5041723;28;20050;-78
2022/12/20 03:55:45;;;;;;;6.72;3.00;;;;;;;;;;5027472;28;20925;-78
2022/12/20 03:58:12;;;;;;;5.05;3.17;;;;;;;;;;5026823;28;20056;-78
2022/12/20 04:00:40;;;;;;;8.15;3.33;;;;;;;;;;5024710;28;20050;-78
2022/12/20 04:03:07;;;;;;;7.90;3.38;;;;;;;;;;5025261;28;20398;-77
2022/12/20 04:05:34;;;;;;;6.28;3.10;;;;;;;;;;5027757;28;20053;-78
2022/12/20 04:08:02;;;;;;;5.90;3.00;;;;;;;;;;5024872;28;20053;-78
2022/12/20 04:10:29;;;;;;;6.40;3.15;;;;;;;;;;5027377;28;20886;-78
2022/12/20 04:12:56;;;;;;;8.32;3.13;;;;;;;;;;5025445;28;20057;-78
2022/12/20 04:15:23;;;;;;;6.18;3.08;;;;;;;;;;5025199;28;20479;-78
2022/12/20 04:17:51;;;;;;;7.05;3.20;;;;;;;;;;5024799;28;20042;-78
2022/12/20 04:20:19;;;;;;;5.65;3.13;;;;;;;;;;5026925;28;20496;-79
2022/12/20 04:22:47;;;;;;;6.97;2.95;;;;;;;;;;5025940;28;20045;-79
2022/12/20 04:25:15;;;;;;;7.10;3.00;;;;;;;;;;5040091;28;20599;-78
2022/12/20 04:27:42;;;;;;;9.88;3.30;;;;;;;;;;5025136;28;20085;-78
2022/12/20 04:30:11;;;;;;;7.97;3.30;;;;;;;;;;5023175;28;21973;-77
2022/12/20 04:32:38;;;;;;;5.68;3.08;;;;;;;;;;5025567;28;20054;-78
2022/12/20 04:35:05;;;;;;;6.80;3.17;;;;;;;;;;5025883;28;20057;-77
2022/12/20 04:37:33;;;;;;;5.47;2.70;;;;;;;;;;5021362;28;20125;-78
2022/12/20 04:40:02;;;;;;;7.57;3.30;;;;;;;;;;5039585;28;20058;-78
2022/12/20 04:42:29;;;;;;;4.95;2.70;;;;;;;;;;5025048;28;20081;-78
2022/12/20 04:44:57;;;;;;;5.10;2.70;;;;;;;;;;5040031;28;20141;-78
2022/12/20 04:47:24;;;;;;;7.25;2.55;;;;;;;;;;5021661;28;20510;-78
2022/12/20 04:49:51;;;;;;;6.97;3.00;;;;;;;;;;5026635;28;20145;-78
2022/12/20 04:55:13;;;;;;;7.22;2.90;;;;;;;;;;5025718;28;20041;-78
2022/12/20 04:57:40;;;;;;;6.82;2.85;;;;;;;;;;5024111;28;20513;-78
2022/12/20 05:00:08;;;;;;;7.47;3.15;;;;;;;;;;5030178;28;22497;-78
2022/12/20 05:02:35;;;;;;;6.10;2.97;;;;;;;;;;5027034;28;20039;-78
2022/12/20 05:05:03;;;;;;;7.50;3.05;;;;;;;;;;5029413;28;20051;-78
2022/12/20 05:07:32;;;;;;;7.03;3.08;;;;;;;;;;5032724;28;20145;-79
2022/12/20 05:09:59;;;;;;;6.55;3.05;;;;;;;;;;5030134;28;20053;-79
2022/12/20 05:12:27;;;;;;;7.20;2.88;;;;;;;;;;5029282;28;20056;-78
2022/12/20 05:14:54;;;;;;;7.72;3.50;;;;;;;;;;5026668;28;20547;-78
2022/12/20 05:17:21;;;;;;;8.77;3.10;;;;;;;;;;5026437;28;20048;-78
2022/12/20 05:19:49;;;;;;;8.45;3.20;;;;;;;;;;5027526;28;20046;-78
2022/12/20 05:27:48;;;;;;;7.93;3.20;;;;;;;;;;5032716;28;20141;-78
2022/12/20 05:30:15;;;;;;;10.57;3.35;;;;;;;;;;5026229;28;20049;-78
2022/12/20 05:32:43;;;;;;;6.78;2.85;;;;;;;;;;5024000;28;20050;-78
2022/12/20 05:35:10;;;;;;;6.60;3.35;;;;;;;;;;5025968;28;20165;-78
2022/12/20 05:37:37;;;;;;;4.82;2.80;;;;;;;;;;5019494;28;20046;-78
2022/12/20 05:40:05;;;;;;;8.23;3.15;;;;;;;;;;5024446;28;20113;-78
2022/12/20 05:42:32;;;;;;;7.95;3.33;;;;;;;;;;5034715;28;20050;-79
2022/12/20 05:45:02;;;;;;;8.13;3.08;;;;;;;;;;5034067;28;20137;-78
2022/12/20 05:47:32;;;;;;;7.80;3.28;;;;;;;;;;5039527;28;20108;-78
2022/12/20 05:50:02;;;;;;;6.55;2.88;;;;;;;;;;5039904;28;20050;-79
2022/12/20 05:52:30;;;;;;;5.70;3.03;;;;;;;;;;5040532;28;20081;-79
2022/12/20 05:54:57;;;;;;;6.63;3.03;;;;;;;;;;5041486;28;20046;-79
2022/12/20 05:57:25;;;;;;;7.63;3.05;;;;;;;;;;5043286;28;20078;-78
2022/12/20 05:59:52;;;;;;;6.30;3.03;;;;;;;;;;5043805;28;20045;-78
2022/12/20 06:02:19;;;;;;;7.00;3.10;;;;;;;;;;5037948;28;20030;-79
2022/12/20 06:04:47;;;;;;;6.25;2.97;;;;;;;;;;5036098;28;20060;-78
2022/12/20 06:07:14;;;;;;;6.95;3.40;;;;;;;;;;5038315;28;20077;-78
2022/12/20 06:09:41;;;;;;;4.95;2.80;;;;;;;;;;5042723;28;20875;-79
2022/12/20 06:12:09;;;;;;;5.68;2.95;;;;;;;;;;5041118;28;20102;-78
2022/12/20 06:14:36;;;;;;;6.55;2.90;;;;;;;;;;5041687;28;20061;-78
2022/12/20 06:17:04;;;;;;;7.13;2.85;;;;;;;;;;5041985;28;20053;-78
2022/12/20 06:19:34;;;;;;;10.48;3.35;;;;;;;;;;5051492;28;20054;-78
2022/12/20 06:22:02;;;;;;;5.55;2.75;;;;;;;;;;5047931;28;20069;-78
2022/12/20 06:24:29;;;;;;;8.65;2.95;;;;;;;;;;5036451;28;20054;-78
2022/12/20 06:26:57;;;;;;;6.00;3.05;;;;;;;;;;5038526;28;20156;-78
2022/12/20 06:29:25;;;;;;;3.95;2.50;;;;;;;;;;5038813;28;20501;-78
2022/12/20 06:31:52;;;;;;;6.10;2.80;;;;;;;;;;5038286;28;20083;-78
2022/12/20 06:34:22;;;;;;;10.00;2.58;;;;;;;;;;5038435;28;20061;-78
2022/12/20 06:36:49;;;;;;;6.30;2.60;;;;;;;;;;5051508;28;20893;-78
2022/12/20 06:39:19;;;;;;;7.10;2.70;;;;;;;;;;5038174;28;20058;-78
2022/12/20 06:41:46;;;;;;;8.57;2.90;;;;;;;;;;5048162;28;20054;-79
2022/12/20 06:44:14;;;;;;;8.85;2.63;;;;;;;;;;5037907;28;20041;-78
2022/12/20 06:46:41;;;;;;;7.25;2.80;;;;;;;;;;5039900;28;20050;-78
2022/12/20 06:49:09;;;;;;;7.38;2.50;;;;;;;;;;5040801;28;20137;-78
2022/12/20 06:51:36;;;;;;;2.97;2.20;;;;;;;;;;5043570;28;21184;-78
2022/12/20 06:54:04;;;;;;;5.05;2.60;;;;;;;;;;5038944;28;20501;-78
2022/12/20 06:56:31;;;;;;;4.85;2.25;;;;;;;;;;5040259;28;20042;-78
2022/12/20 06:59:07;;;;;;;6.07;2.50;;;;;;;;;;5037249;28;20050;-78
2022/12/20 07:01:35;;;;;;;5.13;2.58;;;;;;;;;;5042648;28;20050;-78
2022/12/20 07:04:03;;;;;;;3.95;2.15;;;;;;;;;;5049042;28;20058;-79
2022/12/20 07:06:33;;;;;;;7.18;2.40;;;;;;;;;;5040574;28;20526;-79
2022/12/20 07:09:01;;;;;;;8.25;2.33;;;;;;;;;;5039375;28;20054;-79
2022/12/20 07:11:28;;;;;;;8.45;2.40;;;;;;;;;;5043685;28;20041;-79
2022/12/20 07:13:56;;;;;;;6.10;2.17;;;;;;;;;;5043756;28;20058;-79
2022/12/20 07:16:24;;;;;;;5.22;2.20;;;;;;;;;;5038130;28;20049;-79
2022/12/20 07:18:54;;;;;;;7.90;2.70;;;;;;;;;;5040323;28;20045;-79
2022/12/20 07:21:21;;;;;;;3.28;1.98;;;;;;;;;;5040972;28;20042;-78
2022/12/20 07:23:49;;;;;;;4.63;2.13;;;;;;;;;;5044100;28;20579;-79
2022/12/20 07:26:17;;;;;;;7.65;2.25;;;;;;;;;;5037834;28;20158;-79
2022/12/20 07:28:44;;;;;;;2.78;1.88;;;;;;;;;;5041661;28;20120;-79
2022/12/20 07:31:12;;;;;;;3.47;1.95;;;;;;;;;;5042936;28;20034;-79
2022/12/20 07:33:47;;;;;;;6.35;2.33;;;;;;;;;;5053933;28;20050;-79
2022/12/20 07:36:15;;;;;;;4.07;1.98;;;;;;;;;;5037799;28;20076;-79
2022/12/20 07:38:42;;;;;;;4.25;1.90;;;;;;;;;;5037351;28;20054;-79
2022/12/20 07:41:13;;;;;;;8.43;2.13;;;;;;;;;;5056332;28;20038;-79
2022/12/20 07:43:42;;;;;;;3.63;1.92;;;;;;;;;;5039963;28;20026;-79
2022/12/20 07:46:15;;;;;;;6.95;2.15;;;;;;;;;;5041436;28;20076;-79
2022/12/20 07:48:43;;;;;;;6.43;2.00;;;;;;;;;;5040723;28;20056;-79
2022/12/20 07:51:28;;;;;;;6.28;2.05;;;;;;;;;;5042941;28;20030;-79
2022/12/20 07:54:10;;;;;;;5.95;2.03;;;;;;;;;;5045885;28;20061;-79
2022/12/20 07:56:39;;;;;;;;;;;;;;;;;;5043970;28;20100;-79
2022/12/20 07:59:11;;;;;;;5.95;2.00;;;;;;;;;;5041819;28;44421;-79
2022/12/20 08:01:40;;;;;;;6.78;1.95;;;;;;;;;;5057191;28;20150;-79
2022/12/20 08:04:10;;;;;;;3.45;1.95;;;;;;;;;;5052707;28;20112;-79
2022/12/20 08:06:40;;;;;;;4.57;2.00;;;;;;;;;;5041134;28;20049;-79
2022/12/20 08:09:08;;;;;;;6.35;2.22;;;;;;;;;;5038287;28;20053;-78
2022/12/20 08:11:36;;;;;;;5.78;1.80;;;;;;;;;;5037953;28;20054;-80
2022/12/20 08:14:05;;;;;;;6.93;1.80;;;;;;;;;;5044540;28;20093;-79
2022/12/20 08:16:33;;;;;;;4.32;1.83;;;;;;;;;;5044556;28;20073;-79
2022/12/20 08:19:02;;;;;;;5.72;2.30;;;;;;;;;;5042192;28;20113;-79
2022/12/20 08:21:30;;;;;;;2.90;1.67;;;;;;;;;;5044768;28;20046;-79
2022/12/20 08:23:57;;;;;;;6.43;2.22;;;;;;;;;;5041421;28;20050;-79
2022/12/20 08:26:25;;;;;;;8.88;2.50;;;;;;;;;;5054473;28;20060;-79
2022/12/20 08:28:54;;;;;;;7.55;2.30;;;;;;;;;;5044856;28;20132;-79
2022/12/20 08:31:22;;;;;;;6.75;2.20;;;;;;;;;;5046778;28;20066;-79
2022/12/20 08:33:53;;;;;;;5.95;2.08;;;;;;;;;;5044916;28;20054;-79
2022/12/20 08:36:21;;;;;;;3.55;1.90;;;;;;;;;;5040569;28;20038;-79
2022/12/20 08:38:48;;;;;;;3.97;2.00;;;;;;;;;;5043651;28;20077;-79
2022/12/20 08:41:16;;;;;;;3.40;1.85;;;;;;;;;;5048743;28;20038;-79
2022/12/20 08:43:43;;;;;;;6.60;2.55;;;;;;;;;;5046320;28;21629;-79
2022/12/20 08:46:12;;;;;;;3.92;1.90;;;;;;;;;;5046792;28;20085;-79
2022/12/20 08:48:40;;;;;;;4.13;1.77;;;;;;;;;;5047490;28;20077;-79
2022/12/20 08:51:09;;;;;;;5.55;2.13;;;;;;;;;;5045191;28;20648;-79
2022/12/20 08:53:37;;;;;;;6.43;1.95;;;;;;;;;;5046448;28;20058;-80
2022/12/20 08:56:08;;;;;;;5.97;1.83;;;;;;;;;;5044039;28;20046;-79
2022/12/20 08:58:37;;;;;;;8.48;2.50;;;;;;;;;;5054767;28;20053;-79
2022/12/20 09:01:09;;;;;;;5.22;2.33;;;;;;;;;;5043882;28;20089;-79
2022/12/20 09:03:36;;;;;;;5.57;2.17;;;;;;;;;;5048313;28;20061;-79
2022/12/20 09:06:13;;;;;;;6.18;2.20;;;;;;;;;;5046659;28;20061;-80
2022/12/20 09:08:41;;;;;;;5.63;2.72;;;;;;;;;;5042389;28;20053;-79
2022/12/20 09:11:16;;;;;;;4.25;2.03;;;;;;;;;;5039183;28;20062;-80
2022/12/20 09:13:44;;;;;;;6.55;2.13;;;;;;;;;;5042480;28;20030;-80
2022/12/20 09:16:16;;;;;;;6.18;2.50;;;;;;;;;;5047883;28;20046;-80
2022/12/20 09:18:48;;;;;;;10.55;2.70;;;;;;;;;;5047956;28;20109;-80
2022/12/20 09:21:15;;;;;;;5.25;2.20;;;;;;;;;;5062143;28;20044;-79
2022/12/20 09:23:47;;;;;;;7.10;3.60;;;;;;;;;;5042824;28;20044;-80
2022/12/20 09:26:15;;;;;;;7.45;2.30;;;;;;;;;;5047283;28;20053;-80
2022/12/20 09:28:44;;;;;;;4.15;2.30;;;;;;;;;;5044573;28;20050;-79
2022/12/20 09:31:13;;;;;;;6.18;2.45;;;;;;;;;;5046513;28;20044;-79
2022/12/20 09:33:40;;;;;;;5.93;2.35;;;;;;;;;;5047198;28;20050;-80
2022/12/20 09:36:16;;;;;;;9.02;2.80;;;;;;;;;;5048767;28;20048;-81
2022/12/20 09:38:44;;;;;;;6.45;2.78;;;;;;;;;;5047251;28;20080;-80
2022/12/20 09:41:25;;;;;;;7.22;2.70;;;;;;;;;;5044374;28;20033;-81
2022/12/20 09:43:55;;;;;;;7.90;3.13;;;;;;;;;;5064585;28;20034;-80
2022/12/20 09:46:26;;;;;;;7.15;2.90;;;;;;;;;;5048318;28;20502;-80
2022/12/20 09:48:54;;;;;;;7.72;2.67;;;;;;;;;;5047265;28;20152;-80
2022/12/20 09:51:27;;;;;;;7.85;2.85;;;;;;;;;;5047139;28;20058;-81
2022/12/20 09:54:15;;;;;;;11.98;2.92;;;;;;;;;;5049383;28;20065;-81
2022/12/20 09:56:44;;;;;;;11.43;2.75;;;;;;;;;;5047604;28;20056;-80
2022/12/20 09:59:14;;;;;;;11.75;2.80;;;;;;;;;;5052315;28;20783;-80
2022/12/20 10:01:49;;;;;;;9.57;3.00;;;;;;;;;;5047995;28;20153;-80
2022/12/20 10:04:17;;;;;;;;;;;;;;;;;;5049596;28;20031;-80
2022/12/20 10:07:06;;;;;;;5.78;2.85;;;;;;;;;;5044114;28;43511;-81
2022/12/20 10:09:53;;;;;;;7.75;2.60;;;;;;;;;;5062605;28;20049;-81
2022/12/20 10:12:27;;;;;;;7.35;2.65;;;;;;;;;;5063103;28;20093;-81
2022/12/20 10:15:01;;;;;;;4.85;2.97;;;;;;;;;;5045232;28;20042;-81
2022/12/20 10:17:51;;;;;;;12.13;3.05;;;;;;;;;;5042342;28;20957;-80
2022/12/20 10:20:19;;;;;;;8.30;2.90;;;;;;;;;;5038745;28;20050;-81
2022/12/20 10:23:02;;;;;;;10.32;3.33;;;;;;;;;;5042565;28;20046;-81
2022/12/20 10:25:34;;;;;;;6.95;3.13;;;;;;;;;;5048635;28;20037;-81
2022/12/20 10:28:14;;;;;;;9.50;3.00;;;;;;;;;;5044694;28;20065;-81
2022/12/20 10:30:44;;;;;;;7.03;2.95;;;;;;;;;;5040184;28;20046;-81
2022/12/20 10:33:17;;;;;;;8.48;2.90;;;;;;;;;;5044065;28;20050;-80
2022/12/20 10:35:45;;;;;;;10.35;3.22;;;;;;;;;;5044597;28;20022;-80
2022/12/20 10:38:16;;;;;;;11.15;3.17;;;;;;;;;;5047420;28;20056;-80
2022/12/20 10:40:45;;;;;;;8.00;3.30;;;;;;;;;;5046734;28;20875;-79
2022/12/20 10:43:43;;;;;;;5.70;3.10;;;;;;;;;;5047028;28;20042;-80
2022/12/20 10:46:12;;;;;;;11.70;3.20;;;;;;;;;;5048706;28;20157;-80
2022/12/20 10:48:40;;;;;;;13.98;3.33;;;;;;;;;;5043066;28;20068;-80
2022/12/20 10:51:08;;;;;;;5.60;3.20;;;;;;;;;;5052104;28;20052;-80
2022/12/20 10:54:00;;;;;;;8.85;2.95;;;;;;;;;;5045205;28;20052;-80
2022/12/20 10:56:31;;;;;;;11.07;3.30;;;;;;;;;;5046339;28;20030;-80
2022/12/20 10:59:00;;;;;;;6.43;3.08;;;;;;;;;;5060336;28;20954;-80
2022/12/20 11:01:32;;;;;;;8.88;3.20;;;;;;;;;;5057853;28;20078;-80
2022/12/20 11:04:04;;;;;;;10.10;3.47;;;;;;;;;;5044862;28;20069;-80
2022/12/20 11:06:38;;;;;;;6.13;3.33;;;;;;;;;;5048901;28;20042;-80
2022/12/20 11:09:32;;;;;;;9.23;3.03;;;;;;;;;;5039091;28;20105;-80
2022/12/20 11:12:13;;;;;;;9.88;3.85;;;;;;;;;;5050427;28;20030;-80
2022/12/20 11:14:45;;;;;;;9.60;3.78;;;;;;;;;;5049895;28;20042;-81
2022/12/20 11:17:21;;;;;;;9.80;3.20;;;;;;;;;;5047514;28;20046;-80
2022/12/20 11:19:55;;;;;;;8.68;3.85;;;;;;;;;;5043353;28;20045;-81
2022/12/20 11:22:31;;;;;;;10.02;3.97;;;;;;;;;;5047126;28;20060;-81
2022/12/20 11:25:07;;;;;;;6.57;2.92;;;;;;;;;;5048913;28;20105;-80
2022/12/20 11:27:34;;;;;;;9.52;3.70;;;;;;;;;;5047678;28;20019;-80
2022/12/20 11:30:37;;;;;;;9.98;3.40;;;;;;;;;;5060815;28;20549;-81
2022/12/20 11:33:05;;;;;;;11.85;3.83;;;;;;;;;;5030280;28;20050;-81
2022/12/20 11:35:33;;;;;;;11.93;3.50;;;;;;;;;;5028115;28;20690;-81
2022/12/20 11:38:11;;;;;;;9.43;3.83;;;;;;;;;;5013783;28;20277;-81
2022/12/20 11:40:54;;;;;;;7.35;3.63;;;;;;;;;;5027439;28;20074;-81
2022/12/20 11:43:39;;;;;;;8.55;3.58;;;;;;;;;;5029926;28;20089;-81
2022/12/20 11:46:36;;;;;;;11.00;4.20;;;;;;;;;;5030438;28;20242;-81
2022/12/20 11:49:16;;;;;;;9.63;4.25;;;;;;;;;;5023012;28;20058;-81
2022/12/20 11:52:00;;;;;;;7.32;3.90;;;;;;;;;;5020627;28;20208;-81
2022/12/20 11:54:36;;;;;;;15.10;4.25;;;;;;;;;;5023254;28;20050;-81
2022/12/20 11:57:11;;;;;;;7.60;4.25;;;;;;;;;;5033789;28;20054;-81
2022/12/20 11:59:48;;;;;;;10.50;3.90;;;;;;;;;;5017413;28;20090;-81
2022/12/20 12:02:16;;;;;;;8.32;4.28;;;;;;;;;;5025065;28;20876;-81
2022/12/20 12:04:51;;;;;;;14.25;4.40;;;;;;;;;;5023209;28;20047;-81
2022/12/20 12:07:21;;;;;;;9.82;4.28;;;;;;;;;;5040160;28;20054;-81
2022/12/20 12:09:48;;;;;;;8.48;4.55;;;;;;;;;;5050310;28;20323;-81
2022/12/20 12:12:42;;;;;;;8.88;4.57;;;;;;;;;;5049810;28;20053;-81
2022/12/20 12:15:28;;;;;;;9.68;4.20;;;;;;;;;;5061344;28;20049;-81
2022/12/20 12:18:14;;;;;;;7.15;4.28;;;;;;;;;;5051306;28;21045;-81
2022/12/20 12:21:08;;;;;;;11.60;4.65;;;;;;;;;;5043327;28;20042;-81
2022/12/20 12:23:36;;;;;;;;;;;;;;;;;;5020965;28;20050;-80
2022/12/20 12:26:30;;;;;;;10.40;4.47;;;;;;;;;;5042527;28;43168;-80
2022/12/20 12:28:57;;;;;;;;;;;;;;;;;;5050764;28;20058;-80
2022/12/20 12:31:31;;;;;;;31.30;4.85;;;;;;;;;;5048721;28;45593;-81
2022/12/20 12:34:07;;;;;;;10.20;4.30;;;;;;;;;;5047690;28;20072;-81
2022/12/20 12:36:50;;;;;;;7.95;4.40;;;;;;;;;;5047586;28;20838;-81
2022/12/20 12:39:17;;;;;;;7.80;4.53;;;;;;;;;;5063640;28;20053;-81
2022/12/20 12:41:53;;;;;;;11.23;4.68;;;;;;;;;;5045974;28;20089;-82
2022/12/20 12:44:26;;;;;;;10.05;4.43;;;;;;;;;;5065100;28;20914;-81
2022/12/20 12:46:58;;;;;;;11.60;4.53;;;;;;;;;;5045813;28;20106;-80
2022/12/20 12:49:27;;;;;;;8.45;4.70;;;;;;;;;;5045681;28;20046;-81
2022/12/20 12:52:05;;;;;;;7.88;4.40;;;;;;;;;;5046958;28;20137;-81
2022/12/20 12:54:40;;;;;;;11.85;5.05;;;;;;;;;;5047747;28;20049;-81
2022/12/20 12:57:13;;;;;;;10.93;4.97;;;;;;;;;;5041978;28;20049;-81
2022/12/20 12:59:45;;;;;;;11.55;4.68;;;;;;;;;;5044659;28;20089;-81
2022/12/20 13:02:13;;;;;;;11.95;4.55;;;;;;;;;;5047958;28;20033;-81
2022/12/20 13:05:00;;;;;;;9.88;4.70;;;;;;;;;;5048752;28;20184;-81
2022/12/20 13:07:35;;;;;;;11.48;4.90;;;;;;;;;;5064480;28;20053;-81
2022/12/20 13:10:24;;;;;;;13.48;5.32;;;;;;;;;;5065231;28;20050;-81
2022/12/20 13:12:52;;;;;;;11.20;4.38;;;;;;;;;;5047857;28;20034;-81
2022/12/20 13:15:21;;;;;;;9.05;4.85;;;;;;;;;;5048605;28;20060;-81
2022/12/20 13:17:50;;;;;;;10.43;5.13;;;;;;;;;;5059597;28;20097;-81
2022/12/20 13:20:38;;;;;;;9.65;5.15;;;;;;;;;;5052805;28;20057;-81
2022/12/20 13:23:12;;;;;;;10.15;5.18;;;;;;;;;;5053147;28;20057;-81
2022/12/20 13:25:47;;;;;;;11.00;5.20;;;;;;;;;;5053525;28;20053;-81
2022/12/20 13:28:16;;;;;;;10.68;4.88;;;;;;;;;;5050569;28;20064;-81
2022/12/20 13:30:46;;;;;;;11.93;5.38;;;;;;;;;;5041096;28;20031;-81
2022/12/20 13:33:22;;;;;;;9.40;5.30;;;;;;;;;;5049345;28;20146;-81
2022/12/20 13:35:55;;;;;;;11.10;5.88;;;;;;;;;;5049280;28;20045;-81
2022/12/20 13:38:38;;;;;;;13.37;5.90;;;;;;;;;;5045700;28;20053;-81
2022/12/20 13:41:17;;;;;;;10.63;6.40;;;;;;;;;;5044360;28;20038;-81
2022/12/20 13:43:45;;;;;;;12.10;6.00;;;;;;;;;;5052843;28;20045;-81
2022/12/20 13:46:18;;;;;;;11.20;5.28;;;;;;;;;;5047573;28;20049;-81
2022/12/20 13:48:45;;;;;;;16.30;5.73;;;;;;;;;;5047734;28;20060;-80
2022/12/20 13:51:20;;;;;;;10.93;5.40;;;;;;;;;;5047721;28;20281;-81
2022/12/20 13:53:58;;;;;;;11.50;6.03;;;;;;;;;;5049320;28;20180;-81
2022/12/20 13:56:26;;;;;;;11.27;5.60;;;;;;;;;;5048019;28;20037;-81
2022/12/20 13:58:57;;;;;;;9.00;5.32;;;;;;;;;;5047705;28;20046;-81
2022/12/20 14:01:25;;;;;;;8.85;5.68;;;;;;;;;;5057848;28;20770;-81
2022/12/20 14:03:53;;;;;;;9.00;5.57;;;;;;;;;;5042747;28;20034;-80
2022/12/20 14:06:22;;;;;;;10.55;6.32;;;;;;;;;;5047569;28;20038;-80
2022/12/20 14:08:53;;;;;;;15.02;5.22;;;;;;;;;;5049408;28;20051;-81
2022/12/20 14:11:27;;;;;;;8.65;5.47;;;;;;;;;;5047129;28;20038;-81
2022/12/20 14:13:59;;;;;;;13.32;5.80;;;;;;;;;;5048462;28;20105;-81
2022/12/20 14:16:28;;;;;;;8.75;5.53;;;;;;;;;;5058227;28;20046;-81
2022/12/20 14:19:05;;;;;;;12.50;5.72;;;;;;;;;;5040506;28;20085;-81
2022/12/20 14:21:38;;;;;;;12.43;6.45;;;;;;;;;;5052222;28;20917;-80
2022/12/20 14:24:11;;;;;;;11.35;6.82;;;;;;;;;;5044771;28;20775;-81
2022/12/20 14:26:46;;;;;;;15.80;8.27;;;;;;;;;;5040854;28;20051;-81
2022/12/20 14:29:18;;;;;;;22.75;11.05;;;;;;;;;;5048154;28;20042;-81
2022/12/20 14:31:47;;;;;;;13.48;6.95;;;;;;;;;;5046545;28;20048;-81
2022/12/20 14:34:27;;;;;;;21.15;9.32;;;;;;;;;;5045772;28;20058;-81
2022/12/20 14:37:16;;;;;;;15.68;8.25;;;;;;;;;;5048541;28;20072;-81
2022/12/20 14:39:58;;;;;;;20.30;8.65;;;;;;;;;;5048278;28;20072;-81
2022/12/20 14:42:29;;;;;;;15.00;6.38;;;;;;;;;;5058187;28;20057;-82
2022/12/20 14:45:09;;;;;;;14.93;6.15;;;;;;;;;;5041147;28;20878;-81
2022/12/20 14:47:38;;;;;;;11.98;6.22;;;;;;;;;;5048981;28;20050;-81
2022/12/20 14:50:29;;;;;;;9.63;5.90;;;;;;;;;;5043158;28;20493;-81
2022/12/20 14:52:57;;;;;;;11.23;6.57;;;;;;;;;;5064917;28;20114;-82
2022/12/20 14:55:29;;;;;;;11.10;6.57;;;;;;;;;;5049126;28;20050;-81
2022/12/20 14:57:58;;;;;;;12.27;6.57;;;;;;;;;;5056481;28;20106;-81
2022/12/20 15:00:32;;;;;;;12.13;6.70;;;;;;;;;;5051406;28;20049;-81
2022/12/20 15:03:12;;;;;;;14.57;6.05;;;;;;;;;;5047670;28;20053;-80
2022/12/20 15:05:44;;;;;;;12.05;6.63;;;;;;;;;;5043512;28;20036;-80
2022/12/20 15:08:27;;;;;;;9.25;6.43;;;;;;;;;;5044270;28;20045;-80
2022/12/20 15:11:12;;;;;;;11.27;6.93;;;;;;;;;;5049999;28;20081;-80
2022/12/20 15:13:45;;;;;;;11.35;6.63;;;;;;;;;;5047783;28;20054;-80
2022/12/20 15:16:14;;;;;;;22.17;7.38;;;;;;;;;;5049450;28;20034;-80